Time;durP1;ratioP1;P1;durP2;ratioP2;P2;SDS_P1;SDS_P2;PMS_P1;PMS_P2;Temp;Humidity;BMP_temperature;BMP_pressure;BME280_temperature;BME280_humidity;BME280_pressure;Samples;Min_cycle;Max_cycle;Signal;HPM_P1;HPM_P2
2021/10/24 00:04:26;;;;;;;10.95;7.93;;;;;;;;;;10357590;28;20052;-65
2021/10/24 00:09:24;;;;;;;9.10;8.20;;;;;;;;;;10355125;28;20087;-65
2021/10/24 00:14:22;;;;;;;10.07;7.35;;;;;;;;;;10357147;28;20082;-64
2021/10/24 00:19:21;;;;;;;9.23;8.20;;;;;;;;;;10357124;28;20792;-65
2021/10/24 00:24:21;;;;;;;10.32;8.02;;;;;;;;;;10357470;28;20064;-65
2021/10/24 00:29:20;;;;;;;9.63;8.57;;;;;;;;;;10357458;28;20067;-64
2021/10/24 00:34:18;;;;;;;17.77;10.18;;;;;;;;;;10355439;28;20429;-65
2021/10/24 00:39:16;;;;;;;9.13;7.90;;;;;;;;;;10356432;28;20485;-65
2021/10/24 00:44:21;;;;;;;9.65;8.38;;;;;;;;;;10354908;28;20071;-64
2021/10/24 00:49:20;;;;;;;9.73;7.68;;;;;;;;;;10354496;28;20072;-65
2021/10/24 00:54:22;;;;;;;11.32;8.00;;;;;;;;;;10355852;28;20072;-65
2021/10/24 00:59:22;;;;;;;11.10;7.45;;;;;;;;;;10353823;28;20044;-65
2021/10/24 01:04:20;;;;;;;12.77;8.38;;;;;;;;;;10355000;28;20063;-65
2021/10/24 01:09:21;;;;;;;12.30;8.38;;;;;;;;;;10354971;28;20110;-65
2021/10/24 01:14:19;;;;;;;11.30;9.10;;;;;;;;;;10353848;28;20048;-66
2021/10/24 01:19:19;;;;;;;10.93;8.70;;;;;;;;;;10352343;28;20063;-65
2021/10/24 01:24:19;;;;;;;11.70;9.07;;;;;;;;;;10334315;28;20040;-65
2021/10/24 01:29:18;;;;;;;14.27;9.93;;;;;;;;;;10336718;28;20463;-65
2021/10/24 01:34:17;;;;;;;14.60;10.05;;;;;;;;;;10353297;28;20036;-65
2021/10/24 01:39:15;;;;;;;10.27;9.27;;;;;;;;;;10353778;28;20123;-65
2021/10/24 01:44:17;;;;;;;14.13;10.50;;;;;;;;;;10352292;28;20122;-65
2021/10/24 01:49:16;;;;;;;11.63;10.32;;;;;;;;;;10347790;28;20075;-65
2021/10/24 01:54:15;;;;;;;18.10;11.65;;;;;;;;;;10353726;28;20055;-65
2021/10/24 01:59:13;;;;;;;14.63;10.05;;;;;;;;;;10353810;28;20052;-65
2021/10/24 02:04:51;;;;;;;15.13;10.43;;;;;;;;;;10305256;28;20072;-65
2021/10/24 02:09:55;;;;;;;11.82;10.52;;;;;;;;;;10333362;28;20503;-64
2021/10/24 02:14:53;;;;;;;14.00;10.27;;;;;;;;;;10353601;28;20067;-65
2021/10/24 02:19:53;;;;;;;14.75;10.93;;;;;;;;;;10360555;28;20401;-65
2021/10/24 02:24:53;;;;;;;11.85;10.65;;;;;;;;;;10360273;28;20044;-65
2021/10/24 02:29:51;;;;;;;13.63;9.68;;;;;;;;;;10360492;28;20078;-64
2021/10/24 02:34:51;;;;;;;14.98;9.98;;;;;;;;;;10359814;28;20071;-66
2021/10/24 02:40:01;;;;;;;11.70;10.48;;;;;;;;;;10359688;28;20096;-65
2021/10/24 02:45:04;;;;;;;;;;;;;;;;;;10360486;28;20484;-65
2021/10/24 02:50:04;;;;;;;12.63;10.35;;;;;;;;;;10360074;28;19966;-65
2021/10/24 02:55:05;;;;;;;14.32;10.45;;;;;;;;;;10359028;28;20493;-65
2021/10/24 03:00:05;;;;;;;15.32;10.65;;;;;;;;;;10358213;28;20075;-65
2021/10/24 03:05:03;;;;;;;12.30;11.10;;;;;;;;;;10358297;28;20528;-65
2021/10/24 03:10:01;;;;;;;13.40;10.85;;;;;;;;;;10355280;28;20067;-63
2021/10/24 03:15:02;;;;;;;15.02;12.20;;;;;;;;;;10356449;28;20068;-65
2021/10/24 03:20:01;;;;;;;16.08;11.77;;;;;;;;;;10355934;28;20058;-65
2021/10/24 03:24:59;;;;;;;18.10;12.52;;;;;;;;;;10356789;28;20417;-65
2021/10/24 03:29:58;;;;;;;14.60;11.60;;;;;;;;;;10358940;28;20079;-65
2021/10/24 03:34:58;;;;;;;14.68;11.57;;;;;;;;;;10359094;28;20044;-65
2021/10/24 03:40:00;;;;;;;17.95;11.80;;;;;;;;;;10357726;28;20071;-65
2021/10/24 03:44:59;;;;;;;20.08;14.63;;;;;;;;;;10356831;28;20047;-64
2021/10/24 03:49:59;;;;;;;21.63;14.02;;;;;;;;;;10357635;28;20480;-65
2021/10/24 03:54:59;;;;;;;14.45;11.65;;;;;;;;;;10356874;28;20052;-65
2021/10/24 03:59:57;;;;;;;14.05;12.07;;;;;;;;;;10356840;28;20044;-65
2021/10/24 04:04:56;;;;;;;15.90;12.93;;;;;;;;;;10356031;28;20044;-65
2021/10/24 04:09:55;;;;;;;14.25;12.82;;;;;;;;;;10354355;28;20078;-64
2021/10/24 04:14:54;;;;;;;12.93;11.25;;;;;;;;;;10356780;28;20048;-65
2021/10/24 04:19:52;;;;;;;19.90;15.10;;;;;;;;;;10355872;28;20051;-65
2021/10/24 04:24:51;;;;;;;17.30;13.50;;;;;;;;;;10337232;28;20036;-65
2021/10/24 04:29:52;;;;;;;15.73;13.80;;;;;;;;;;10355910;28;20074;-65
2021/10/24 04:34:51;;;;;;;16.48;12.80;;;;;;;;;;10355671;28;20044;-65
2021/10/24 04:39:54;;;;;;;12.68;11.38;;;;;;;;;;10356290;28;20032;-65
2021/10/24 04:44:55;;;;;;;17.35;11.93;;;;;;;;;;10335782;28;20047;-65
2021/10/24 04:49:53;;;;;;;14.98;12.15;;;;;;;;;;10352095;28;20071;-65
2021/10/24 04:54:52;;;;;;;12.98;11.10;;;;;;;;;;10355134;28;20068;-65
2021/10/24 04:59:50;;;;;;;22.58;16.27;;;;;;;;;;10354828;28;20047;-65
2021/10/24 05:04:50;;;;;;;22.63;17.27;;;;;;;;;;10353529;28;20036;-65
2021/10/24 05:09:53;;;;;;;31.02;19.98;;;;;;;;;;10353264;28;20076;-65
2021/10/24 05:14:52;;;;;;;43.67;35.42;;;;;;;;;;10351353;28;20048;-65
2021/10/24 05:19:51;;;;;;;36.33;26.52;;;;;;;;;;10354788;28;20173;-65
2021/10/24 05:24:51;;;;;;;26.70;23.35;;;;;;;;;;10353776;28;20405;-65
2021/10/24 05:29:50;;;;;;;28.63;21.13;;;;;;;;;;10353769;28;20076;-65
2021/10/24 05:34:49;;;;;;;27.20;22.60;;;;;;;;;;10352757;28;20052;-65
2021/10/24 05:39:50;;;;;;;39.25;32.33;;;;;;;;;;10354962;28;20091;-68
2021/10/24 05:45:01;;;;;;;69.53;41.42;;;;;;;;;;10350791;28;20071;-64
2021/10/24 05:50:02;;;;;;;30.40;24.73;;;;;;;;;;10355941;28;20075;-65
2021/10/24 05:55:02;;;;;;;37.33;32.00;;;;;;;;;;10343716;28;20036;-65
2021/10/24 06:00:01;;;;;;;50.45;37.72;;;;;;;;;;10357037;28;20075;-65
2021/10/24 06:05:15;;;;;;;23.65;19.48;;;;;;;;;;10359568;28;20075;-65
2021/10/24 06:10:17;;;;;;;45.55;34.83;;;;;;;;;;10360529;28;20465;-65
2021/10/24 06:15:16;;;;;;;22.60;18.50;;;;;;;;;;10360196;28;20261;-65
2021/10/24 06:20:15;;;;;;;27.83;24.92;;;;;;;;;;10356637;28;20040;-63
2021/10/24 06:25:16;;;;;;;20.48;16.77;;;;;;;;;;10355182;28;20089;-65
2021/10/24 06:30:21;;;;;;;20.10;16.20;;;;;;;;;;10347934;28;20102;-65
2021/10/24 06:35:29;;;;;;;20.83;15.82;;;;;;;;;;10368241;28;20079;-64
2021/10/24 06:40:49;;;;;;;23.73;16.35;;;;;;;;;;10352554;28;20086;-65
2021/10/24 06:45:51;;;;;;;18.50;12.00;;;;;;;;;;10346807;28;20084;-64
2021/10/24 06:51:08;;;;;;;21.35;17.10;;;;;;;;;;10354544;28;20127;-65
2021/10/24 06:56:26;;;;;;;17.33;15.52;;;;;;;;;;10361665;28;20075;-64
2021/10/24 07:01:43;;;;;;;27.00;19.70;;;;;;;;;;10357535;28;20470;-62
2021/10/24 07:07:14;;;;;;;31.65;24.95;;;;;;;;;;10327288;28;20072;-62
2021/10/24 07:12:26;;;;;;;34.83;20.13;;;;;;;;;;10345542;28;20521;-64
2021/10/24 07:17:24;;;;;;;24.00;14.88;;;;;;;;;;10352509;28;20796;-64
2021/10/24 07:22:22;;;;;;;15.32;10.93;;;;;;;;;;10326871;28;20126;-64
2021/10/24 07:27:31;;;;;;;16.08;12.52;;;;;;;;;;10329833;28;20135;-64
2021/10/24 07:32:31;;;;;;;16.77;12.05;;;;;;;;;;10355130;28;20071;-65
2021/10/24 07:38:03;;;;;;;12.65;11.00;;;;;;;;;;10340995;28;20072;-65
2021/10/24 07:43:12;;;;;;;16.55;14.50;;;;;;;;;;10352138;28;20595;-63
2021/10/24 07:48:10;;;;;;;21.42;18.45;;;;;;;;;;10352276;28;20067;-66
2021/10/24 07:53:09;;;;;;;13.90;12.25;;;;;;;;;;10348995;28;20097;-62
2021/10/24 07:58:13;;;;;;;28.77;21.65;;;;;;;;;;10352193;28;20623;-63
2021/10/24 08:03:11;;;;;;;13.23;8.65;;;;;;;;;;10355204;28;20072;-64
2021/10/24 08:08:11;;;;;;;15.60;11.48;;;;;;;;;;10348633;28;20071;-64
2021/10/24 08:13:09;;;;;;;13.38;11.02;;;;;;;;;;10346128;28;20088;-62
2021/10/24 08:18:09;;;;;;;20.48;15.73;;;;;;;;;;10347965;28;20143;-64
2021/10/24 08:23:39;;;;;;;133.80;75.10;;;;;;;;;;10353783;28;20078;-64
2021/10/24 08:28:45;;;;;;;15.90;10.90;;;;;;;;;;10341765;28;20071;-62
2021/10/24 08:34:04;;;;;;;;;;;;;;;;;;10341445;28;20063;-64
2021/10/24 08:39:04;;;;;;;53.78;27.77;;;;;;;;;;10349796;28;19967;-64
2021/10/24 08:44:03;;;;;;;18.42;11.10;;;;;;;;;;10351634;28;20485;-65
2021/10/24 08:49:01;;;;;;;12.68;7.75;;;;;;;;;;10354847;28;20032;-65
2021/10/24 08:54:01;;;;;;;13.10;7.22;;;;;;;;;;10352282;28;20531;-65
2021/10/24 08:59:01;;;;;;;20.73;11.15;;;;;;;;;;10354349;28;20075;-64
2021/10/24 09:04:04;;;;;;;15.45;7.85;;;;;;;;;;10355500;28;20059;-64
2021/10/24 09:09:10;;;;;;;20.08;12.73;;;;;;;;;;10350322;28;20091;-64
2021/10/24 09:14:12;;;;;;;13.82;6.88;;;;;;;;;;10349483;28;20536;-65
2021/10/24 09:19:15;;;;;;;33.35;23.60;;;;;;;;;;10350209;28;20832;-65
2021/10/24 09:24:13;;;;;;;28.02;17.13;;;;;;;;;;10343114;28;20071;-62
2021/10/24 09:29:14;;;;;;;25.05;9.40;;;;;;;;;;10342703;28;20074;-67
2021/10/24 09:34:13;;;;;;;13.80;7.95;;;;;;;;;;10344484;28;20075;-65
2021/10/24 09:39:12;;;;;;;11.90;5.85;;;;;;;;;;10339045;28;20067;-66
2021/10/24 09:44:14;;;;;;;10.85;6.80;;;;;;;;;;10343781;28;20454;-64
2021/10/24 09:49:16;;;;;;;9.93;5.63;;;;;;;;;;10343676;28;20060;-66
2021/10/24 09:54:19;;;;;;;15.38;8.88;;;;;;;;;;10345689;28;20106;-65
2021/10/24 09:59:19;;;;;;;49.38;27.80;;;;;;;;;;10344185;28;20055;-67
2021/10/24 10:04:18;;;;;;;16.88;10.68;;;;;;;;;;10349235;28;20169;-66
2021/10/24 10:09:16;;;;;;;96.20;63.80;;;;;;;;;;10352998;28;20068;-66
2021/10/24 10:14:16;;;;;;;11.38;5.80;;;;;;;;;;10352797;28;20064;-67
2021/10/24 10:19:16;;;;;;;13.65;7.38;;;;;;;;;;10352456;28;20070;-67
2021/10/24 10:24:29;;;;;;;7.45;4.90;;;;;;;;;;10352274;28;20075;-65
2021/10/24 10:29:42;;;;;;;12.75;7.30;;;;;;;;;;10350266;28;20504;-63
2021/10/24 10:34:56;;;;;;;8.98;5.72;;;;;;;;;;10349653;28;20064;-66
2021/10/24 10:40:00;;;;;;;12.43;6.20;;;;;;;;;;10358595;28;20044;-65
2021/10/24 10:45:13;;;;;;;23.02;13.82;;;;;;;;;;10359885;28;20105;-66
2021/10/24 10:50:26;;;;;;;12.07;6.43;;;;;;;;;;10359268;28;20068;-65
2021/10/24 10:55:29;;;;;;;11.55;7.10;;;;;;;;;;10357329;28;20079;-66
2021/10/24 11:00:37;;;;;;;12.55;7.63;;;;;;;;;;10357005;28;20059;-65
2021/10/24 11:05:36;;;;;;;11.32;7.45;;;;;;;;;;10358771;28;20071;-65
2021/10/24 11:10:44;;;;;;;8.93;4.60;;;;;;;;;;10356719;28;20078;-66
2021/10/24 11:15:42;;;;;;;37.90;21.50;;;;;;;;;;10358408;28;20082;-66
2021/10/24 11:20:45;;;;;;;15.55;9.02;;;;;;;;;;10358393;28;20071;-66
2021/10/24 11:25:44;;;;;;;10.93;5.65;;;;;;;;;;10357810;28;20066;-66
2021/10/24 11:30:43;;;;;;;7.30;4.25;;;;;;;;;;10362182;28;20420;-66
2021/10/24 11:35:42;;;;;;;7.88;4.60;;;;;;;;;;10357501;28;20079;-67
2021/10/24 11:40:42;;;;;;;23.63;5.68;;;;;;;;;;10357645;28;20040;-67
2021/10/24 11:45:45;;;;;;;8.35;5.18;;;;;;;;;;10357677;28;20055;-67
2021/10/24 11:50:49;;;;;;;7.38;4.80;;;;;;;;;;10356627;28;20060;-67
2021/10/24 11:55:49;;;;;;;12.13;5.80;;;;;;;;;;10356850;28;20067;-67
2021/10/24 12:00:51;;;;;;;10.60;4.63;;;;;;;;;;10355007;28;20040;-67
2021/10/24 12:05:50;;;;;;;10.80;4.82;;;;;;;;;;10356655;28;20060;-66
2021/10/24 12:10:52;;;;;;;9.40;4.25;;;;;;;;;;10356316;28;20040;-67
2021/10/24 12:15:51;;;;;;;13.45;3.90;;;;;;;;;;10355644;28;20094;-67
2021/10/24 12:20:54;;;;;;;5.55;3.30;;;;;;;;;;10354892;28;20095;-67
2021/10/24 12:25:55;;;;;;;8.02;4.05;;;;;;;;;;10356195;28;20067;-67
2021/10/24 12:30:56;;;;;;;8.82;5.03;;;;;;;;;;10355540;28;20059;-67
2021/10/24 12:35:55;;;;;;;14.55;6.97;;;;;;;;;;10353060;28;20523;-68
2021/10/24 12:40:54;;;;;;;54.53;34.08;;;;;;;;;;10354940;28;20083;-67
2021/10/24 12:46:01;;;;;;;10.55;7.53;;;;;;;;;;10355069;28;20059;-67
2021/10/24 12:51:00;;;;;;;5.07;3.72;;;;;;;;;;10352638;28;20067;-67
2021/10/24 12:55:59;;;;;;;8.15;4.10;;;;;;;;;;10351984;28;20500;-68
2021/10/24 13:00:58;;;;;;;8.15;4.47;;;;;;;;;;10353804;28;20035;-67
2021/10/24 13:05:58;;;;;;;7.38;3.65;;;;;;;;;;10354368;28;20036;-67
2021/10/24 13:10:56;;;;;;;7.28;4.85;;;;;;;;;;10353255;28;20064;-67
2021/10/24 13:15:54;;;;;;;6.85;3.80;;;;;;;;;;10353780;28;20071;-67
2021/10/24 13:20:58;;;;;;;17.20;9.70;;;;;;;;;;10353919;28;20398;-66
2021/10/24 13:25:59;;;;;;;7.30;5.43;;;;;;;;;;10347223;28;20143;-67
2021/10/24 13:30:57;;;;;;;9.95;5.20;;;;;;;;;;10344149;28;20074;-66
2021/10/24 13:35:56;;;;;;;12.65;5.97;;;;;;;;;;10346087;28;20071;-64
2021/10/24 13:40:54;;;;;;;6.85;4.05;;;;;;;;;;10354252;28;20036;-65
2021/10/24 13:45:54;;;;;;;7.85;4.30;;;;;;;;;;10353904;28;20068;-65
2021/10/24 13:50:52;;;;;;;8.40;4.43;;;;;;;;;;10354338;28;20068;-65
2021/10/24 13:55:52;;;;;;;67.63;33.03;;;;;;;;;;10351589;28;20068;-65
2021/10/24 14:00:50;;;;;;;49.45;25.05;;;;;;;;;;10328439;28;20152;-65
2021/10/24 14:05:50;;;;;;;27.55;15.93;;;;;;;;;;10338017;28;20072;-65
2021/10/24 14:10:51;;;;;;;65.07;33.03;;;;;;;;;;10338737;28;20064;-67
2021/10/24 14:15:49;;;;;;;131.45;68.55;;;;;;;;;;10340388;28;20087;-67
2021/10/24 14:20:47;;;;;;;113.63;59.90;;;;;;;;;;10349713;28;20064;-65
2021/10/24 14:25:47;;;;;;;37.03;21.40;;;;;;;;;;10351384;28;20478;-66
2021/10/24 14:30:45;;;;;;;37.83;20.50;;;;;;;;;;10359721;28;20060;-66
2021/10/24 14:35:44;;;;;;;104.38;65.90;;;;;;;;;;10359171;28;20060;-66
2021/10/24 14:40:43;;;;;;;117.07;68.57;;;;;;;;;;10337691;28;20072;-65
2021/10/24 14:45:43;;;;;;;59.70;32.50;;;;;;;;;;10328749;28;20079;-65
2021/10/24 14:50:41;;;;;;;138.07;74.43;;;;;;;;;;10328117;28;20075;-66
2021/10/24 14:55:39;;;;;;;56.00;33.05;;;;;;;;;;10335125;28;20064;-64
2021/10/24 15:00:38;;;;;;;27.10;16.38;;;;;;;;;;10347087;28;20061;-66
2021/10/24 15:05:38;;;;;;;39.67;24.50;;;;;;;;;;10352450;28;20092;-65
2021/10/24 15:10:37;;;;;;;21.45;13.85;;;;;;;;;;10339940;28;20091;-63
2021/10/24 15:15:40;;;;;;;18.45;12.70;;;;;;;;;;10333863;28;20083;-64
2021/10/24 15:25:58;;;;;;;56.03;35.67;;;;;;;;;;10335891;28;20072;-65
2021/10/24 15:30:56;;;;;;;25.70;16.33;;;;;;;;;;10349432;28;20492;-66
2021/10/24 15:35:56;;;;;;;25.23;15.88;;;;;;;;;;10354230;28;20493;-66
2021/10/24 15:40:55;;;;;;;20.70;12.27;;;;;;;;;;10340867;28;20063;-65
2021/10/24 15:45:53;;;;;;;34.53;27.85;;;;;;;;;;10330463;28;20453;-66
2021/10/24 15:50:52;;;;;;;30.52;26.13;;;;;;;;;;10346314;28;20064;-66
2021/10/24 15:55:51;;;;;;;40.35;33.13;;;;;;;;;;10347546;28;20070;-65
2021/10/24 16:00:50;;;;;;;41.67;30.67;;;;;;;;;;10346522;28;20520;-64
2021/10/24 16:05:50;;;;;;;39.60;28.35;;;;;;;;;;10345876;28;20068;-64
2021/10/24 16:10:48;;;;;;;31.67;23.13;;;;;;;;;;10332321;28;20099;-66
2021/10/24 16:15:48;;;;;;;24.75;16.58;;;;;;;;;;10334094;28;20469;-65
2021/10/24 16:20:46;;;;;;;30.75;16.05;;;;;;;;;;10349502;28;20492;-66
2021/10/24 16:25:46;;;;;;;24.23;14.13;;;;;;;;;;10341805;28;20068;-65
2021/10/24 16:30:45;;;;;;;21.55;14.55;;;;;;;;;;10358869;28;20138;-65
2021/10/24 16:35:45;;;;;;;17.05;13.60;;;;;;;;;;10345654;28;20067;-65
2021/10/24 16:40:44;;;;;;;49.35;38.38;;;;;;;;;;10340720;28;20063;-65
2021/10/24 16:45:42;;;;;;;31.80;23.02;;;;;;;;;;10328980;28;20079;-65
2021/10/24 16:50:41;;;;;;;23.92;14.57;;;;;;;;;;10330492;28;20076;-66
2021/10/24 16:55:52;;;;;;;19.17;10.10;;;;;;;;;;10343748;28;20417;-65
2021/10/24 17:01:07;;;;;;;21.00;15.15;;;;;;;;;;10319684;28;20071;-64
2021/10/24 17:06:06;;;;;;;19.33;12.88;;;;;;;;;;10335440;28;20068;-64
2021/10/24 17:11:06;;;;;;;15.77;8.30;;;;;;;;;;10328257;28;20438;-66
2021/10/24 17:16:04;;;;;;;12.75;6.45;;;;;;;;;;10340871;28;20075;-66
2021/10/24 17:21:04;;;;;;;13.07;10.50;;;;;;;;;;10332868;28;20082;-66
2021/10/24 17:26:02;;;;;;;15.25;8.05;;;;;;;;;;10343096;28;20059;-65
2021/10/24 17:31:02;;;;;;;12.38;8.30;;;;;;;;;;10329689;28;20075;-67
2021/10/24 17:36:04;;;;;;;15.93;8.15;;;;;;;;;;10332332;28;20822;-66
2021/10/24 17:41:02;;;;;;;10.70;7.85;;;;;;;;;;10331819;28;20098;-66
2021/10/24 17:46:02;;;;;;;15.52;10.10;;;;;;;;;;10334920;28;20037;-65
2021/10/24 17:51:00;;;;;;;14.13;9.77;;;;;;;;;;10345640;28;20067;-65
2021/10/24 17:55:59;;;;;;;11.48;7.57;;;;;;;;;;10351640;28;20075;-66
2021/10/24 18:00:57;;;;;;;13.40;11.07;;;;;;;;;;10343293;28;20056;-66
2021/10/24 18:05:57;;;;;;;12.45;9.02;;;;;;;;;;10328179;28;20071;-66
2021/10/24 18:10:56;;;;;;;11.27;8.60;;;;;;;;;;10324486;28;20066;-66
2021/10/24 18:15:54;;;;;;;12.15;7.43;;;;;;;;;;10364513;28;20083;-65
2021/10/24 18:20:53;;;;;;;21.95;11.60;;;;;;;;;;10342465;28;20083;-65
2021/10/24 18:25:52;;;;;;;28.55;20.45;;;;;;;;;;10335283;28;20068;-66
2021/10/24 18:30:51;;;;;;;12.02;7.72;;;;;;;;;;10345167;28;20075;-65
2021/10/24 18:35:51;;;;;;;13.73;7.63;;;;;;;;;;10350153;28;20075;-65
2021/10/24 18:40:49;;;;;;;17.67;12.35;;;;;;;;;;10339280;28;20071;-65
2021/10/24 18:45:50;;;;;;;15.90;11.50;;;;;;;;;;10355489;28;20087;-66
2021/10/24 18:50:52;;;;;;;13.60;9.07;;;;;;;;;;10341655;28;20083;-65
2021/10/24 18:55:53;;;;;;;11.27;8.05;;;;;;;;;;10347727;28;20068;-64
2021/10/24 19:00:52;;;;;;;12.40;7.00;;;;;;;;;;10351101;28;20539;-65
2021/10/24 19:05:55;;;;;;;12.75;8.13;;;;;;;;;;10348107;28;20067;-65
2021/10/24 19:10:54;;;;;;;14.63;9.40;;;;;;;;;;10344984;28;20060;-64
2021/10/24 19:15:54;;;;;;;15.55;10.32;;;;;;;;;;10340468;28;20099;-65
2021/10/24 19:20:52;;;;;;;12.13;8.65;;;;;;;;;;10358450;28;20071;-65
2021/10/24 19:25:51;;;;;;;14.77;8.13;;;;;;;;;;10340796;28;20087;-65
2021/10/24 19:30:49;;;;;;;10.98;7.20;;;;;;;;;;10327519;28;20078;-65
2021/10/24 19:35:49;;;;;;;13.38;6.45;;;;;;;;;;10345486;28;20075;-66
2021/10/24 19:40:47;;;;;;;9.98;5.82;;;;;;;;;;10333940;28;20064;-65
2021/10/24 19:45:47;;;;;;;11.00;6.43;;;;;;;;;;10342334;28;20052;-66
2021/10/24 19:50:46;;;;;;;15.73;6.93;;;;;;;;;;10346139;28;20060;-66
2021/10/24 19:55:46;;;;;;;12.95;6.65;;;;;;;;;;10355991;28;20524;-66
2021/10/24 20:00:45;;;;;;;14.23;7.60;;;;;;;;;;10336125;28;20063;-66
2021/10/24 20:05:43;;;;;;;24.38;8.68;;;;;;;;;;10343867;28;20080;-65
2021/10/24 20:10:41;;;;;;;15.00;10.68;;;;;;;;;;10348381;28;20070;-64
2021/10/24 20:15:41;;;;;;;18.65;11.18;;;;;;;;;;10337840;28;20643;-65
2021/10/24 20:20:40;;;;;;;22.05;13.68;;;;;;;;;;10346893;28;20104;-66
2021/10/24 20:25:38;;;;;;;19.35;10.85;;;;;;;;;;10337514;28;20492;-65
2021/10/24 20:30:36;;;;;;;18.75;11.25;;;;;;;;;;10343406;28;20076;-66
2021/10/24 20:35:36;;;;;;;19.50;9.95;;;;;;;;;;10340493;28;20067;-66
2021/10/24 20:40:34;;;;;;;12.98;8.43;;;;;;;;;;10317271;28;20044;-66
2021/10/24 20:45:33;;;;;;;17.92;9.15;;;;;;;;;;10324153;28;20078;-65
2021/10/24 20:50:31;;;;;;;8.18;5.45;;;;;;;;;;10337773;28;20067;-66
2021/10/24 20:55:31;;;;;;;7.50;4.85;;;;;;;;;;10344335;28;20496;-65
2021/10/24 21:00:29;;;;;;;9.75;5.03;;;;;;;;;;10355145;28;20079;-65
2021/10/24 21:05:28;;;;;;;12.73;5.45;;;;;;;;;;10338609;28;20067;-65
2021/10/24 21:10:26;;;;;;;6.13;4.28;;;;;;;;;;10323483;28;20080;-67
2021/10/24 21:15:26;;;;;;;10.57;5.25;;;;;;;;;;10349090;28;20091;-66
2021/10/24 21:20:26;;;;;;;9.65;4.88;;;;;;;;;;10349505;28;20461;-66
2021/10/24 21:25:24;;;;;;;7.93;5.20;;;;;;;;;;10350730;28;20075;-67
2021/10/24 21:30:22;;;;;;;11.68;5.28;;;;;;;;;;10331424;28;20478;-66
2021/10/24 21:35:22;;;;;;;12.00;6.93;;;;;;;;;;10335150;28;20103;-64
2021/10/24 21:40:21;;;;;;;8.60;7.07;;;;;;;;;;10323136;28;20070;-65
2021/10/24 21:45:19;;;;;;;13.93;8.82;;;;;;;;;;10328363;28;20060;-65
2021/10/24 21:50:17;;;;;;;29.83;20.50;;;;;;;;;;10315512;28;20079;-65
2021/10/24 21:55:17;;;;;;;26.02;15.38;;;;;;;;;;10314879;28;20060;-65
2021/10/24 22:00:17;;;;;;;7.80;4.60;;;;;;;;;;10313604;28;20060;-65
2021/10/24 22:05:15;;;;;;;5.90;3.63;;;;;;;;;;10314745;28;20515;-65
2021/10/24 22:10:13;;;;;;;5.53;3.63;;;;;;;;;;10314529;28;20041;-65
2021/10/24 22:15:13;;;;;;;7.35;4.25;;;;;;;;;;10313902;28;20107;-65
2021/10/24 22:20:12;;;;;;;9.98;3.75;;;;;;;;;;10314655;28;20083;-65
2021/10/24 22:25:10;;;;;;;9.02;3.88;;;;;;;;;;10314059;28;20041;-65
2021/10/24 22:30:09;;;;;;;11.50;4.53;;;;;;;;;;10314472;28;20045;-66
2021/10/24 22:35:09;;;;;;;17.75;10.30;;;;;;;;;;10336793;28;20867;-66
2021/10/24 22:40:08;;;;;;;11.27;6.53;;;;;;;;;;10334552;28;20107;-67
2021/10/24 22:45:06;;;;;;;8.38;5.53;;;;;;;;;;10320175;28;20048;-67
2021/10/24 22:50:05;;;;;;;10.00;6.15;;;;;;;;;;10341387;28;20096;-64
2021/10/24 22:55:06;;;;;;;10.48;6.15;;;;;;;;;;10321134;28;20048;-65
2021/10/24 23:00:05;;;;;;;10.50;5.75;;;;;;;;;;10320983;28;20091;-64
2021/10/24 23:05:04;;;;;;;10.82;5.43;;;;;;;;;;10321335;28;20052;-65
2021/10/24 23:10:02;;;;;;;9.18;5.82;;;;;;;;;;10320384;28;20068;-65
2021/10/24 23:15:02;;;;;;;12.85;6.05;;;;;;;;;;10319890;28;20097;-64
2021/10/24 23:20:01;;;;;;;10.50;5.63;;;;;;;;;;10320585;28;20075;-65
2021/10/24 23:25:00;;;;;;;8.95;5.70;;;;;;;;;;10333557;28;20051;-65
2021/10/24 23:29:59;;;;;;;13.32;6.03;;;;;;;;;;10318324;28;20063;-65
2021/10/24 23:34:58;;;;;;;12.63;6.65;;;;;;;;;;10334646;28;20060;-65
2021/10/24 23:39:57;;;;;;;10.98;6.25;;;;;;;;;;10318561;28;20064;-65
2021/10/24 23:44:56;;;;;;;15.85;5.75;;;;;;;;;;10318312;28;20099;-64
2021/10/24 23:49:54;;;;;;;12.07;6.13;;;;;;;;;;10318953;28;20071;-65
2021/10/24 23:54:54;;;;;;;12.18;6.30;;;;;;;;;;10318821;28;20079;-65
2021/10/24 23:59:52;;;;;;;10.38;6.20;;;;;;;;;;10331107;28;20048;-65
